createdAt,value
2017-11-17T00:00:33.141Z,1016.15
2017-11-17T00:01:13.756Z,1016.14
2017-11-17T00:01:54.362Z,1016.13
2017-11-17T00:02:34.983Z,1016.15
2017-11-17T00:03:15.575Z,1016.13
2017-11-17T00:03:56.172Z,1016.14
2017-11-17T00:04:36.771Z,1016.11
2017-11-17T00:05:17.370Z,1016.12
2017-11-17T00:05:57.960Z,1016.14
2017-11-17T00:06:38.556Z,1016.12
2017-11-17T00:07:19.137Z,1016.1
2017-11-17T00:07:59.702Z,1016.15
2017-11-17T00:08:40.314Z,1016.14
2017-11-17T00:09:20.904Z,1016.19
2017-11-17T00:10:01.490Z,1016.23
2017-11-17T00:10:42.083Z,1016.17
2017-11-17T00:11:22.669Z,1016.18
2017-11-17T00:12:03.289Z,1016.18
2017-11-17T00:12:43.889Z,1016.22
2017-11-17T00:13:24.479Z,1016.2
2017-11-17T00:14:05.090Z,1016.18
2017-11-17T00:14:45.684Z,1016.19
2017-11-17T00:15:26.264Z,1016.16
2017-11-17T00:16:06.839Z,1016.18
2017-11-17T00:16:47.437Z,1016.2
2017-11-17T00:17:28.041Z,1016.19
2017-11-17T00:18:08.647Z,1016.19
2017-11-17T00:18:49.240Z,1016.14
2017-11-17T00:19:29.867Z,1016.16
2017-11-17T00:20:10.451Z,1016.16
2017-11-17T00:20:51.058Z,1016.12
2017-11-17T00:21:31.654Z,1016.17
2017-11-17T00:22:12.247Z,1016.14
2017-11-17T00:22:52.853Z,1016.13
2017-11-17T00:23:33.449Z,1016.11
2017-11-17T00:24:14.060Z,1016.13
2017-11-17T00:24:54.656Z,1016.11
2017-11-17T00:25:35.314Z,1016.13
2017-11-17T00:26:15.918Z,1016.13
2017-11-17T00:26:56.514Z,1016.16
2017-11-17T00:27:37.108Z,1016.1
2017-11-17T00:28:17.717Z,1016.13
2017-11-17T00:28:58.307Z,1016.11
2017-11-17T00:29:38.904Z,1016.12
2017-11-17T00:30:19.546Z,1016.1
2017-11-17T00:31:00.145Z,1016.11
2017-11-17T00:31:40.733Z,1016.1
2017-11-17T00:32:21.338Z,1016.12
2017-11-17T00:33:01.927Z,1016.11
2017-11-17T00:33:42.528Z,1016.08
2017-11-17T00:34:23.136Z,1016.11
2017-11-17T00:35:03.745Z,1016.11
2017-11-17T00:35:44.445Z,1016.14
2017-11-17T00:36:25.045Z,1016.13
2017-11-17T00:37:05.644Z,1016.14
2017-11-17T00:37:46.235Z,1016.14
2017-11-17T00:38:26.818Z,1016.11
2017-11-17T00:39:07.409Z,1016.1
2017-11-17T00:39:48.040Z,1016.13
2017-11-17T00:40:28.654Z,1016.12
2017-11-17T00:41:09.251Z,1016.12
2017-11-17T00:41:49.876Z,1016.11
2017-11-17T00:42:30.499Z,1016.08
2017-11-17T00:43:11.083Z,1016.07
2017-11-17T00:43:51.692Z,1016.06
2017-11-17T00:44:32.294Z,1016.07
2017-11-17T00:45:12.870Z,1016.02
2017-11-17T00:45:53.466Z,1016.04
2017-11-17T00:46:34.081Z,1016.1
2017-11-17T00:47:14.691Z,1016.07
2017-11-17T00:47:55.298Z,1016.07
2017-11-17T00:48:35.892Z,1016
2017-11-17T00:49:16.499Z,1016.02
2017-11-17T00:49:57.106Z,1016.07
2017-11-17T00:50:37.692Z,1016.13
2017-11-17T00:51:18.295Z,1016.12
2017-11-17T00:51:58.873Z,1016.07
2017-11-17T00:52:39.499Z,1016.06
2017-11-17T00:53:20.074Z,1016.11
2017-11-17T00:54:00.700Z,1016.08
2017-11-17T00:54:41.292Z,1016.09
2017-11-17T00:55:21.905Z,1016.11
2017-11-17T00:56:02.527Z,1016.1
2017-11-17T00:56:43.150Z,1016.07
2017-11-17T00:57:23.740Z,1016.07
2017-11-17T00:58:04.352Z,1016.06
2017-11-17T00:58:44.943Z,1016.07
2017-11-17T00:59:25.539Z,1016.09
2017-11-17T01:00:06.118Z,1016.03
2017-11-17T01:00:46.816Z,1016.02
2017-11-17T01:01:27.495Z,1016.01
2017-11-17T01:02:08.162Z,1016.03
2017-11-17T01:02:49.217Z,1015.98
2017-11-17T01:03:29.952Z,1015.99
2017-11-17T01:04:10.684Z,1016.01
2017-11-17T01:04:51.306Z,1016.05
2017-11-17T01:05:31.877Z,1016.04
2017-11-17T01:06:12.476Z,1016.06
2017-11-17T01:06:53.062Z,1016.06
2017-11-17T01:07:33.646Z,1016.07
2017-11-17T01:08:14.267Z,1016.05
2017-11-17T01:08:54.845Z,1016.05
2017-11-17T01:09:35.422Z,1016.11
2017-11-17T01:10:16.028Z,1016.07
2017-11-17T01:10:56.636Z,1016.06
2017-11-17T01:11:37.221Z,1016.07
2017-11-17T01:12:17.810Z,1016.06
2017-11-17T01:12:58.402Z,1016.05
2017-11-17T01:13:39.020Z,1016.05
2017-11-17T01:14:19.627Z,1016.05
2017-11-17T01:15:00.216Z,1016.05
2017-11-17T01:15:40.799Z,1016.01
2017-11-17T01:16:21.374Z,1016.04
2017-11-17T01:17:01.981Z,1016.09
2017-11-17T01:17:42.606Z,1016.07
2017-11-17T01:18:23.200Z,1016.07
2017-11-17T01:19:03.802Z,1016.08
2017-11-17T01:19:44.420Z,1016.08
2017-11-17T01:20:25.014Z,1016.07
2017-11-17T01:21:05.617Z,1016.08
2017-11-17T01:21:46.226Z,1016.08
2017-11-17T01:22:26.830Z,1016.09
2017-11-17T01:23:07.408Z,1016.02
2017-11-17T01:23:47.988Z,1016.04
2017-11-17T01:24:28.557Z,1016.06
2017-11-17T01:25:09.138Z,1016.06
2017-11-17T01:25:49.761Z,1016.07
2017-11-17T01:26:30.327Z,1016.07
2017-11-17T01:27:10.919Z,1016.08
2017-11-17T01:27:51.516Z,1016.05
2017-11-17T01:28:32.128Z,1016.12
2017-11-17T01:29:12.726Z,1016.03
2017-11-17T01:29:53.300Z,1016.03
2017-11-17T01:30:33.914Z,1016.04
2017-11-17T01:31:14.505Z,1016.05
2017-11-17T01:31:55.095Z,1016.08
2017-11-17T01:32:35.703Z,1016.03
2017-11-17T01:33:16.321Z,1016.03
2017-11-17T01:33:56.917Z,1016.01
2017-11-17T01:34:37.511Z,1016.03
2017-11-17T01:35:18.090Z,1016.06
2017-11-17T01:35:58.697Z,1016.08
2017-11-17T01:36:39.314Z,1016.02
2017-11-17T01:37:19.936Z,1016.02
2017-11-17T01:38:00.509Z,1016.06
2017-11-17T01:38:41.129Z,1016.03
2017-11-17T01:39:21.695Z,1016.02
2017-11-17T01:40:02.282Z,1016.06
2017-11-17T01:40:42.869Z,1016.06
2017-11-17T01:41:23.453Z,1016.01
2017-11-17T01:42:04.071Z,1015.98
2017-11-17T01:42:44.657Z,1016.04
2017-11-17T01:43:25.243Z,1016.03
2017-11-17T01:44:05.830Z,1016.01
2017-11-17T01:44:49.188Z,1016.03
2017-11-17T01:45:29.796Z,1016.03
2017-11-17T01:46:10.369Z,1016.02
2017-11-17T01:46:50.942Z,1016.03
2017-11-17T01:47:31.526Z,1016.03
2017-11-17T01:48:12.114Z,1016.08
2017-11-17T01:48:52.701Z,1016.06
2017-11-17T01:49:33.274Z,1016.08
2017-11-17T01:50:13.873Z,1016.1
2017-11-17T01:50:54.505Z,1016.08
2017-11-17T01:51:35.083Z,1016.07
2017-11-17T01:52:15.659Z,1016.1
2017-11-17T01:52:56.240Z,1016.08
2017-11-17T01:53:36.822Z,1016.03
2017-11-17T01:54:17.397Z,1016.06
2017-11-17T01:54:58.056Z,1016.07
2017-11-17T01:55:38.653Z,1016.09
2017-11-17T01:56:19.235Z,1016.07
2017-11-17T01:56:59.823Z,1016.1
2017-11-17T01:57:40.393Z,1016.12
2017-11-17T01:58:20.964Z,1016.13
2017-11-17T01:59:01.525Z,1016.13
2017-11-17T01:59:42.107Z,1016.15
2017-11-17T02:00:22.670Z,1016.18
2017-11-17T02:01:03.242Z,1016.16
2017-11-17T02:01:43.828Z,1016.15
2017-11-17T02:02:24.446Z,1016.2
2017-11-17T02:03:05.029Z,1016.18
2017-11-17T02:03:45.607Z,1016.17
2017-11-17T02:04:26.181Z,1016.16
2017-11-17T02:05:06.775Z,1016.18
2017-11-17T02:05:47.351Z,1016.18
2017-11-17T02:06:27.937Z,1016.19
2017-11-17T02:07:08.532Z,1016.16
2017-11-17T02:07:49.124Z,1016.23
2017-11-17T02:08:29.724Z,1016.16
2017-11-17T02:09:10.334Z,1016.19
2017-11-17T02:09:50.925Z,1016.18
2017-11-17T02:10:31.509Z,1016.19
2017-11-17T02:11:12.083Z,1016.16
2017-11-17T02:11:52.679Z,1016.16
2017-11-17T02:12:33.263Z,1016.2
2017-11-17T02:13:13.845Z,1016.17
2017-11-17T02:13:54.470Z,1016.2
2017-11-17T02:14:35.035Z,1016.21
2017-11-17T02:15:15.631Z,1016.22
2017-11-17T02:15:56.248Z,1016.23
2017-11-17T02:16:36.868Z,1016.22
2017-11-17T02:17:17.455Z,1016.24
2017-11-17T02:17:58.073Z,1016.25
2017-11-17T02:18:38.648Z,1016.27
2017-11-17T02:19:19.237Z,1016.22
2017-11-17T02:19:59.866Z,1016.26
2017-11-17T02:20:40.420Z,1016.27
2017-11-17T02:21:21.010Z,1016.24
2017-11-17T02:22:01.590Z,1016.24
2017-11-17T02:22:42.165Z,1016.23
2017-11-17T02:23:22.775Z,1016.26
2017-11-17T02:24:03.435Z,1016.2
2017-11-17T02:24:43.988Z,1016.24
2017-11-17T02:25:24.574Z,1016.2
2017-11-17T02:26:05.171Z,1016.2
2017-11-17T02:26:45.745Z,1016.18
2017-11-17T02:27:26.333Z,1016.19
2017-11-17T02:28:06.936Z,1016.24
2017-11-17T02:28:47.535Z,1016.14
2017-11-17T02:29:28.125Z,1016.15
2017-11-17T02:30:08.699Z,1016.14
2017-11-17T02:30:49.287Z,1016.08
2017-11-17T02:31:29.877Z,1016.08
2017-11-17T02:32:10.461Z,1016.03
2017-11-17T02:32:51.094Z,1016.04
2017-11-17T02:33:31.700Z,1016.05
2017-11-17T02:34:12.275Z,1016.08
2017-11-17T02:34:52.896Z,1016.06
2017-11-17T02:35:33.451Z,1016
2017-11-17T02:36:14.054Z,1016.02
2017-11-17T02:36:54.636Z,1016.05
2017-11-17T02:37:35.212Z,1016.04
2017-11-17T02:38:15.815Z,1016.01
2017-11-17T02:38:56.401Z,1016.02
2017-11-17T02:39:37.008Z,1016.05
2017-11-17T02:40:17.604Z,1016.07
2017-11-17T02:40:58.191Z,1016.04
2017-11-17T02:41:38.790Z,1016.11
2017-11-17T02:42:19.385Z,1016.07
2017-11-17T02:42:59.987Z,1016.08
2017-11-17T02:43:40.577Z,1016.05
2017-11-17T02:44:21.168Z,1016.1
2017-11-17T02:45:01.784Z,1016.02
2017-11-17T02:45:42.575Z,1016.06
2017-11-17T02:46:23.161Z,1016.11
2017-11-17T02:47:03.765Z,1016.06
2017-11-17T02:47:44.351Z,1016.05
2017-11-17T02:48:24.930Z,1016.04
2017-11-17T02:49:05.527Z,1016.05
2017-11-17T02:49:46.102Z,1016.08
2017-11-17T02:50:26.737Z,1016.06
2017-11-17T02:51:07.311Z,1016.06
2017-11-17T02:51:47.901Z,1016.07
2017-11-17T02:52:28.500Z,1016.07
2017-11-17T02:53:09.088Z,1016.1
2017-11-17T02:53:49.680Z,1016.08
2017-11-17T02:54:30.253Z,1016.07
2017-11-17T02:55:10.889Z,1016.09
2017-11-17T02:55:51.468Z,1016.11
2017-11-17T02:56:32.072Z,1016.11
2017-11-17T02:57:12.671Z,1016.07
2017-11-17T02:57:53.247Z,1016.1
2017-11-17T02:58:33.838Z,1016.08
2017-11-17T02:59:14.434Z,1016.08
2017-11-17T02:59:55.027Z,1016.07
2017-11-17T03:00:35.598Z,1016.04
2017-11-17T03:01:16.173Z,1016.06
2017-11-17T03:01:56.754Z,1016.05
2017-11-17T03:02:37.354Z,1016.08
2017-11-17T03:03:17.970Z,1016.06
2017-11-17T03:03:58.556Z,1016.08
2017-11-17T03:04:39.131Z,1016.08
2017-11-17T03:05:19.711Z,1016.06
2017-11-17T03:06:00.326Z,1016.08
2017-11-17T03:06:40.906Z,1016.07
2017-11-17T03:07:21.501Z,1016.06
2017-11-17T03:08:02.122Z,1016.05
2017-11-17T03:08:42.699Z,1016.04
2017-11-17T03:09:23.281Z,1016.06
2017-11-17T03:10:03.883Z,1016.04
2017-11-17T03:10:44.465Z,1016.03
2017-11-17T03:11:25.049Z,1016.11
2017-11-17T03:12:05.630Z,1016.07
2017-11-17T03:12:46.216Z,1016.09
2017-11-17T03:13:26.793Z,1016.09
2017-11-17T03:14:07.365Z,1016.04
2017-11-17T03:14:47.970Z,1016.06
2017-11-17T03:15:28.544Z,1016.07
2017-11-17T03:16:09.115Z,1016.04
2017-11-17T03:16:49.683Z,1016.04
2017-11-17T03:17:30.266Z,1016.05
2017-11-17T03:18:10.857Z,1016.04
2017-11-17T03:18:51.464Z,1016.05
2017-11-17T03:19:32.053Z,1016.03
2017-11-17T03:20:12.609Z,1016.05
2017-11-17T03:20:53.210Z,1016.03
2017-11-17T03:21:33.809Z,1016.05
2017-11-17T03:22:14.395Z,1016.05
2017-11-17T03:22:55.009Z,1016.05
2017-11-17T03:23:35.616Z,1016.05
2017-11-17T03:24:16.203Z,1016.06
2017-11-17T03:24:56.787Z,1016.06
2017-11-17T03:25:37.370Z,1016.09
2017-11-17T03:26:17.951Z,1016.1
2017-11-17T03:26:58.532Z,1016.08
2017-11-17T03:27:39.104Z,1016.04
2017-11-17T03:28:20.767Z,1016.12
2017-11-17T03:29:01.337Z,1016.06
2017-11-17T03:29:41.976Z,1016.08
2017-11-17T03:30:22.548Z,1016.1
2017-11-17T03:31:03.153Z,1016.07
2017-11-17T03:31:43.723Z,1016.11
2017-11-17T03:32:24.315Z,1016.08
2017-11-17T03:33:04.872Z,1016.07
2017-11-17T03:33:45.457Z,1016.11
2017-11-17T03:34:26.061Z,1016.07
2017-11-17T03:35:06.613Z,1016.1
2017-11-17T03:35:47.832Z,1016.08
2017-11-17T03:36:28.402Z,1016.05
2017-11-17T03:37:08.982Z,1016.1
2017-11-17T03:37:49.545Z,1016.1
2017-11-17T03:38:30.108Z,1016.15
2017-11-17T03:39:10.677Z,1016.11
2017-11-17T03:39:51.251Z,1016.12
2017-11-17T03:40:31.845Z,1016.14
2017-11-17T03:41:12.436Z,1016.15
2017-11-17T03:41:53.052Z,1016.14
2017-11-17T03:42:33.646Z,1016.13
2017-11-17T03:43:14.260Z,1016.18
2017-11-17T03:43:54.845Z,1016.13
2017-11-17T03:44:35.448Z,1016.15
2017-11-17T03:45:16.036Z,1016.16
2017-11-17T03:45:56.609Z,1016.15
2017-11-17T03:46:37.256Z,1016.15
2017-11-17T03:47:17.809Z,1016.18
2017-11-17T03:47:58.406Z,1016.15
2017-11-17T03:48:38.981Z,1016.16
2017-11-17T03:49:19.559Z,1016.18
2017-11-17T03:50:00.157Z,1016.18
2017-11-17T03:50:40.725Z,1016.15
2017-11-17T03:51:21.292Z,1016.2
2017-11-17T03:52:01.871Z,1016.18
2017-11-17T03:52:42.441Z,1016.16
2017-11-17T03:53:23.003Z,1016.21
2017-11-17T03:54:03.611Z,1016.23
2017-11-17T03:54:44.166Z,1016.21
2017-11-17T03:55:24.753Z,1016.18
2017-11-17T03:56:05.331Z,1016.22
2017-11-17T03:56:45.911Z,1016.21
2017-11-17T03:57:26.487Z,1016.22
2017-11-17T03:58:07.063Z,1016.19
2017-11-17T03:58:47.635Z,1016.24
2017-11-17T03:59:28.235Z,1016.28
2017-11-17T04:00:08.813Z,1016.23
2017-11-17T04:00:49.400Z,1016.24
2017-11-17T04:01:29.973Z,1016.27
2017-11-17T04:02:10.585Z,1016.27
2017-11-17T04:02:51.159Z,1016.28
2017-11-17T04:03:31.736Z,1016.3
2017-11-17T04:04:12.318Z,1016.31
2017-11-17T04:04:52.888Z,1016.3
2017-11-17T04:05:33.475Z,1016.33
2017-11-17T04:06:14.093Z,1016.32
2017-11-17T04:06:54.650Z,1016.27
2017-11-17T04:07:35.236Z,1016.29
2017-11-17T04:08:15.847Z,1016.34
2017-11-17T04:08:56.439Z,1016.35
2017-11-17T04:09:36.998Z,1016.36
2017-11-17T04:10:17.589Z,1016.33
2017-11-17T04:10:58.150Z,1016.38
2017-11-17T04:11:38.748Z,1016.4
2017-11-17T04:12:19.317Z,1016.4
2017-11-17T04:12:59.942Z,1016.39
2017-11-17T04:13:40.468Z,1016.38
2017-11-17T04:14:21.032Z,1016.4
2017-11-17T04:15:01.632Z,1016.38
2017-11-17T04:15:42.197Z,1016.38
2017-11-17T04:16:22.767Z,1016.4
2017-11-17T04:17:03.330Z,1016.39
2017-11-17T04:17:43.934Z,1016.36
2017-11-17T04:18:24.485Z,1016.41
2017-11-17T04:19:05.102Z,1016.4
2017-11-17T04:19:45.670Z,1016.39
2017-11-17T04:20:26.280Z,1016.41
2017-11-17T04:21:06.823Z,1016.44
2017-11-17T04:21:47.382Z,1016.43
2017-11-17T04:22:27.962Z,1016.53
2017-11-17T04:23:08.547Z,1016.46
2017-11-17T04:23:49.109Z,1016.49
2017-11-17T04:24:29.723Z,1016.47
2017-11-17T04:25:10.322Z,1016.5
2017-11-17T04:25:50.893Z,1016.45
2017-11-17T04:26:31.464Z,1016.51
2017-11-17T04:27:12.076Z,1016.48
2017-11-17T04:27:52.644Z,1016.49
2017-11-17T04:28:33.237Z,1016.5
2017-11-17T04:29:13.880Z,1016.54
2017-11-17T04:29:54.498Z,1016.52
2017-11-17T04:30:35.075Z,1016.53
2017-11-17T04:31:15.657Z,1016.52
2017-11-17T04:31:56.254Z,1016.57
2017-11-17T04:32:36.849Z,1016.57
2017-11-17T04:33:17.409Z,1016.56
2017-11-17T04:33:57.992Z,1016.59
2017-11-17T04:34:38.557Z,1016.59
2017-11-17T04:35:19.126Z,1016.62
2017-11-17T04:35:59.693Z,1016.57
2017-11-17T04:36:40.369Z,1016.58
2017-11-17T04:37:21.347Z,1016.59
2017-11-17T04:38:02.067Z,1016.62
2017-11-17T04:38:42.634Z,1016.58
2017-11-17T04:39:23.221Z,1016.6
2017-11-17T04:40:03.796Z,1016.62
2017-11-17T04:40:44.375Z,1016.6
2017-11-17T04:41:24.932Z,1016.62
2017-11-17T04:42:05.515Z,1016.62
2017-11-17T04:42:46.080Z,1016.66
2017-11-17T04:43:26.667Z,1016.62
2017-11-17T04:44:07.239Z,1016.63
2017-11-17T04:44:47.825Z,1016.65
2017-11-17T04:45:28.381Z,1016.66
2017-11-17T04:46:08.939Z,1016.72
2017-11-17T04:46:49.536Z,1016.67
2017-11-17T04:47:30.149Z,1016.68
2017-11-17T04:48:10.756Z,1016.7
2017-11-17T04:48:51.329Z,1016.72
2017-11-17T04:49:31.928Z,1016.68
2017-11-17T04:50:12.584Z,1016.72
2017-11-17T04:50:53.158Z,1016.7
2017-11-17T04:51:33.734Z,1016.7
2017-11-17T04:52:14.329Z,1016.72
2017-11-17T04:52:54.910Z,1016.69
2017-11-17T04:53:35.552Z,1016.7
2017-11-17T04:54:16.159Z,1016.69
2017-11-17T04:54:56.735Z,1016.73
2017-11-17T04:55:37.352Z,1016.7
2017-11-17T04:56:17.932Z,1016.69
2017-11-17T04:56:58.527Z,1016.76
2017-11-17T04:57:39.105Z,1016.73
2017-11-17T04:58:19.668Z,1016.77
2017-11-17T04:59:00.245Z,1016.75
2017-11-17T04:59:40.825Z,1016.75
2017-11-17T05:00:21.408Z,1016.75
2017-11-17T05:01:01.978Z,1016.78
2017-11-17T05:01:43.349Z,1016.77
2017-11-17T05:02:23.921Z,1016.77
2017-11-17T05:03:04.503Z,1016.8
2017-11-17T05:03:45.086Z,1016.81
2017-11-17T05:04:25.671Z,1016.76
2017-11-17T05:05:06.262Z,1016.76
2017-11-17T05:05:46.832Z,1016.79
2017-11-17T05:06:27.427Z,1016.74
2017-11-17T05:07:08.043Z,1016.78
2017-11-17T05:07:48.637Z,1016.78
2017-11-17T05:08:29.211Z,1016.78
2017-11-17T05:09:09.793Z,1016.77
2017-11-17T05:09:50.357Z,1016.8
2017-11-17T05:10:30.942Z,1016.76
2017-11-17T05:11:11.545Z,1016.82
2017-11-17T05:11:52.129Z,1016.86
2017-11-17T05:12:32.705Z,1016.86
2017-11-17T05:13:13.273Z,1016.83
2017-11-17T05:13:54.154Z,1016.84
2017-11-17T05:14:34.821Z,1016.84
2017-11-17T05:15:15.385Z,1016.89
2017-11-17T05:15:55.966Z,1016.89
2017-11-17T05:16:36.522Z,1016.86
2017-11-17T05:17:17.104Z,1016.91
2017-11-17T05:17:57.791Z,1016.86
2017-11-17T05:18:38.356Z,1016.88
2017-11-17T05:19:18.963Z,1016.82
2017-11-17T05:19:59.636Z,1016.84
2017-11-17T05:20:40.245Z,1016.86
2017-11-17T05:21:20.949Z,1016.89
2017-11-17T05:22:01.730Z,1016.88
2017-11-17T05:22:42.304Z,1016.91
2017-11-17T05:23:23.129Z,1016.82
2017-11-17T05:24:03.741Z,1016.84
2017-11-17T05:24:44.360Z,1016.87
2017-11-17T05:25:24.978Z,1016.9
2017-11-17T05:26:05.580Z,1016.91
2017-11-17T05:26:46.160Z,1016.93
2017-11-17T05:27:26.795Z,1016.93
2017-11-17T05:28:07.471Z,1016.97
2017-11-17T05:28:48.067Z,1016.95
2017-11-17T05:29:29.123Z,1016.93
2017-11-17T05:30:10.132Z,1016.97
2017-11-17T05:30:50.837Z,1017.01
2017-11-17T05:31:31.423Z,1016.99
2017-11-17T05:32:12.234Z,1017
2017-11-17T05:32:52.922Z,1016.92
2017-11-17T05:33:33.550Z,1016.99
2017-11-17T05:34:14.365Z,1016.97
2017-11-17T05:34:55.070Z,1017.03
2017-11-17T05:35:35.688Z,1017
2017-11-17T05:36:16.284Z,1017.05
2017-11-17T05:36:57.022Z,1017.07
2017-11-17T05:37:37.695Z,1017.09
2017-11-17T05:38:18.282Z,1017.11
2017-11-17T05:38:58.876Z,1017.13
2017-11-17T05:39:39.479Z,1017.11
2017-11-17T05:40:20.062Z,1017.11
2017-11-17T05:41:00.624Z,1017.07
2017-11-17T05:41:41.599Z,1017.14
2017-11-17T05:42:22.190Z,1017.17
2017-11-17T05:43:02.774Z,1017.17
2017-11-17T05:43:43.390Z,1017.16
2017-11-17T05:44:23.959Z,1017.2
2017-11-17T05:45:04.542Z,1017.19
2017-11-17T05:45:45.147Z,1017.18
2017-11-17T05:46:25.801Z,1017.19
2017-11-17T05:47:06.415Z,1017.17
2017-11-17T05:47:47.015Z,1017.18
2017-11-17T05:48:27.593Z,1017.2
2017-11-17T05:49:08.188Z,1017.15
2017-11-17T05:49:48.768Z,1017.18
2017-11-17T05:50:29.390Z,1017.18
2017-11-17T05:51:09.969Z,1017.18
2017-11-17T05:51:50.568Z,1017.16
2017-11-17T05:52:31.162Z,1017.2
2017-11-17T05:53:11.765Z,1017.21
2017-11-17T05:53:52.341Z,1017.23
2017-11-17T05:54:32.922Z,1017.28
2017-11-17T05:55:13.511Z,1017.25
2017-11-17T05:55:54.092Z,1017.22
2017-11-17T05:56:34.679Z,1017.24
2017-11-17T05:57:15.340Z,1017.23
2017-11-17T05:57:55.912Z,1017.29
2017-11-17T05:58:36.498Z,1017.29
2017-11-17T05:59:17.101Z,1017.27
2017-11-17T05:59:57.752Z,1017.26
2017-11-17T06:00:38.347Z,1017.26
2017-11-17T06:01:18.918Z,1017.27
2017-11-17T06:01:59.480Z,1017.28
2017-11-17T06:02:40.053Z,1017.29
2017-11-17T06:03:20.621Z,1017.33
2017-11-17T06:04:01.172Z,1017.33
2017-11-17T06:04:41.751Z,1017.34
2017-11-17T06:05:22.338Z,1017.33
2017-11-17T06:06:02.892Z,1017.37
2017-11-17T06:06:43.473Z,1017.38
2017-11-17T06:07:24.097Z,1017.38
2017-11-17T06:08:04.684Z,1017.38
2017-11-17T06:08:45.265Z,1017.36
2017-11-17T06:09:25.870Z,1017.38
2017-11-17T06:10:06.429Z,1017.4
2017-11-17T06:10:47.005Z,1017.42
2017-11-17T06:11:27.570Z,1017.44
2017-11-17T06:12:08.150Z,1017.44
2017-11-17T06:12:48.806Z,1017.38
2017-11-17T06:13:29.396Z,1017.4
2017-11-17T06:14:09.977Z,1017.42
2017-11-17T06:14:50.536Z,1017.4
2017-11-17T06:15:31.109Z,1017.42
2017-11-17T06:16:11.674Z,1017.4
2017-11-17T06:16:52.256Z,1017.41
2017-11-17T06:17:32.874Z,1017.37
2017-11-17T06:18:13.450Z,1017.42
2017-11-17T06:18:54.011Z,1017.43
2017-11-17T06:19:34.621Z,1017.45
2017-11-17T06:20:15.197Z,1017.47
2017-11-17T06:20:55.829Z,1017.44
2017-11-17T06:21:36.447Z,1017.45
2017-11-17T06:22:17.024Z,1017.47
2017-11-17T06:22:57.605Z,1017.47
2017-11-17T06:23:38.256Z,1017.51
2017-11-17T06:24:18.878Z,1017.5
2017-11-17T06:24:59.526Z,1017.51
2017-11-17T06:25:40.055Z,1017.49
2017-11-17T06:26:20.640Z,1017.55
2017-11-17T06:27:01.202Z,1017.54
2017-11-17T06:27:41.787Z,1017.58
2017-11-17T06:28:22.341Z,1017.57
2017-11-17T06:29:02.967Z,1017.57
2017-11-17T06:29:43.597Z,1017.59
2017-11-17T06:30:24.177Z,1017.62
2017-11-17T06:31:04.874Z,1017.6
2017-11-17T06:31:45.476Z,1017.65
2017-11-17T06:32:26.057Z,1017.66
2017-11-17T06:33:06.624Z,1017.68
2017-11-17T06:33:47.536Z,1017.69
2017-11-17T06:34:28.130Z,1017.72
2017-11-17T06:35:08.708Z,1017.72
2017-11-17T06:35:49.451Z,1017.7
2017-11-17T06:36:30.057Z,1017.76
2017-11-17T06:37:10.665Z,1017.77
2017-11-17T06:37:51.280Z,1017.8
2017-11-17T06:38:31.992Z,1017.77
2017-11-17T06:39:12.571Z,1017.78
2017-11-17T06:39:53.147Z,1017.78
2017-11-17T06:40:33.717Z,1017.78
2017-11-17T06:41:14.283Z,1017.81
2017-11-17T06:41:54.894Z,1017.85
2017-11-17T06:42:35.459Z,1017.84
2017-11-17T06:43:16.045Z,1017.85
2017-11-17T06:43:57.138Z,1017.83
2017-11-17T06:44:37.711Z,1017.86
2017-11-17T06:45:18.299Z,1017.9
2017-11-17T06:45:59.053Z,1017.9
2017-11-17T06:46:39.642Z,1017.94
2017-11-17T06:47:20.235Z,1017.95
2017-11-17T06:48:00.820Z,1017.98
2017-11-17T06:48:41.417Z,1017.98
2017-11-17T06:49:22.015Z,1018
2017-11-17T06:50:02.611Z,1017.96
2017-11-17T06:50:43.230Z,1017.98
2017-11-17T06:51:23.841Z,1018.02
2017-11-17T06:52:04.428Z,1017.99
2017-11-17T06:52:44.995Z,1017.97
2017-11-17T06:53:25.601Z,1018.01
2017-11-17T06:54:06.172Z,1018.03
2017-11-17T06:54:46.745Z,1018.06
2017-11-17T06:55:27.495Z,1018.06
2017-11-17T06:56:08.501Z,1018.12
2017-11-17T06:56:49.992Z,1018.11
2017-11-17T06:57:30.482Z,1018.12
2017-11-17T06:58:12.101Z,1018.11
2017-11-17T06:58:52.999Z,1018.1
2017-11-17T06:59:33.570Z,1018.07
2017-11-17T07:00:14.145Z,1018.11
2017-11-17T07:00:54.862Z,1018.15
2017-11-17T07:01:35.558Z,1018.13
2017-11-17T07:02:16.619Z,1018.1
2017-11-17T07:02:57.033Z,1018.1
2017-11-17T07:03:37.848Z,1018.09
2017-11-17T07:04:18.553Z,1018.14
2017-11-17T07:04:59.411Z,1018.16
2017-11-17T07:05:40.107Z,1018.18
2017-11-17T07:06:20.904Z,1018.22
2017-11-17T07:07:01.636Z,1018.18
2017-11-17T07:07:42.343Z,1018.19
2017-11-17T07:08:23.115Z,1018.18
2017-11-17T07:09:04.097Z,1018.19
2017-11-17T07:09:44.741Z,1018.19
2017-11-17T07:10:25.322Z,1018.2
2017-11-17T07:11:06.069Z,1018.18
2017-11-17T07:11:46.795Z,1018.25
2017-11-17T07:12:27.423Z,1018.16
2017-11-17T07:13:08.008Z,1018.24
2017-11-17T07:13:52.109Z,1018.25
2017-11-17T07:14:37.034Z,1018.24
2017-11-17T07:15:26.597Z,1018.28
2017-11-17T07:16:08.708Z,1018.3
2017-11-17T07:16:49.332Z,1018.29
2017-11-17T07:17:29.906Z,1018.29
2017-11-17T07:18:10.486Z,1018.32
2017-11-17T07:18:51.055Z,1018.24
2017-11-17T07:19:31.841Z,1018.32
2017-11-17T07:20:12.500Z,1018.32
2017-11-17T07:20:53.127Z,1018.32
2017-11-17T07:21:33.781Z,1018.31
2017-11-17T07:22:14.494Z,1018.36
2017-11-17T07:22:58.477Z,1018.39
2017-11-17T07:23:39.068Z,1018.4
2017-11-17T07:24:19.644Z,1018.41
2017-11-17T07:25:00.265Z,1018.46
2017-11-17T07:25:40.819Z,1018.45
2017-11-17T07:26:23.929Z,1018.47
2017-11-17T07:27:04.849Z,1018.44
2017-11-17T07:27:45.457Z,1018.45
2017-11-17T07:28:26.048Z,1018.52
2017-11-17T07:29:06.637Z,1018.47
2017-11-17T07:29:47.231Z,1018.51
2017-11-17T07:30:28.175Z,1018.49
2017-11-17T07:31:08.763Z,1018.53
2017-11-17T07:31:49.359Z,1018.5
2017-11-17T07:32:29.929Z,1018.52
2017-11-17T07:33:10.511Z,1018.5
2017-11-17T07:33:51.899Z,1018.53
2017-11-17T07:34:33.427Z,1018.53
2017-11-17T07:35:14.029Z,1018.52
2017-11-17T07:35:54.661Z,1018.54
2017-11-17T07:36:35.263Z,1018.58
2017-11-17T07:37:15.825Z,1018.55
2017-11-17T07:37:56.408Z,1018.56
2017-11-17T07:38:36.993Z,1018.61
2017-11-17T07:39:17.564Z,1018.6
2017-11-17T07:39:58.128Z,1018.62
2017-11-17T07:40:38.695Z,1018.64
2017-11-17T07:41:19.279Z,1018.63
2017-11-17T07:41:59.856Z,1018.58
2017-11-17T07:42:40.429Z,1018.62
2017-11-17T07:43:21.016Z,1018.6
2017-11-17T07:44:01.620Z,1018.63
2017-11-17T07:44:42.226Z,1018.63
2017-11-17T07:45:22.785Z,1018.65
2017-11-17T07:46:03.362Z,1018.68
2017-11-17T07:46:43.942Z,1018.64
2017-11-17T07:47:24.574Z,1018.65
2017-11-17T07:48:05.157Z,1018.62
2017-11-17T07:48:45.743Z,1018.67
2017-11-17T07:49:26.383Z,1018.68
2017-11-17T07:50:06.994Z,1018.67
2017-11-17T07:50:47.586Z,1018.65
2017-11-17T07:51:28.198Z,1018.63
2017-11-17T07:52:08.804Z,1018.66
2017-11-17T07:52:49.446Z,1018.72
2017-11-17T07:53:30.055Z,1018.72
2017-11-17T07:54:10.653Z,1018.68
2017-11-17T07:54:51.236Z,1018.69
2017-11-17T07:55:31.850Z,1018.74
2017-11-17T07:56:12.463Z,1018.74
2017-11-17T07:56:53.047Z,1018.77
2017-11-17T07:57:33.686Z,1018.75
2017-11-17T07:58:14.266Z,1018.75
2017-11-17T07:58:54.860Z,1018.76
2017-11-17T07:59:35.446Z,1018.76
2017-11-17T08:00:16.046Z,1018.77
2017-11-17T08:00:56.637Z,1018.78
2017-11-17T08:01:37.270Z,1018.85
2017-11-17T08:02:17.807Z,1018.8
2017-11-17T08:02:58.414Z,1018.77
2017-11-17T08:03:39.027Z,1018.86
2017-11-17T08:04:19.618Z,1018.81
2017-11-17T08:05:00.226Z,1018.82
2017-11-17T08:05:40.849Z,1018.87
2017-11-17T08:06:21.419Z,1018.86
2017-11-17T08:07:02.007Z,1018.85
2017-11-17T08:07:42.637Z,1018.88
2017-11-17T08:08:23.234Z,1018.91
2017-11-17T08:09:03.828Z,1018.83
2017-11-17T08:09:44.428Z,1018.89
2017-11-17T08:10:25.023Z,1018.89
2017-11-17T08:11:05.630Z,1018.89
2017-11-17T08:11:46.228Z,1018.88
2017-11-17T08:12:26.841Z,1018.9
2017-11-17T08:13:07.440Z,1018.93
2017-11-17T08:13:48.064Z,1018.97